Airfield :
LOGIN :

Register | Disclaimer

   EN    FR    IT 

 










Legend :    VFR   Marginal VFR   IFR   Intensive IFR   Very Intensive IFR
Visi :
Ceiling :
>= 8 km
>= 3000ft
5 to 8 km
1000 to 3000 ft
1500m to 5 km
500 to 1000 ft
800 to 1500m
200 to 500 ft
< 800m
< 200 ft
Symbols :   Thunderstorms  Fog  Heavy snow  Heavy precipitations  Wind > 20 kt
SIGMETs :     Misc.  Thunderstorms  Icing  Turbulence  Mountain Waves  Volcanic Ashes






- Airport Elevation : 1058 ft
- IATA code : SCN


EDDR - Saarbrücken

CURRENT METAR :
  • 021420Z AUTO 27014KT 9999 BKN017 OVC022 OVC029 06/03 Q1027 NOSIG

EXPIRED METARs :
  • 021350Z AUTO 27015KT 9999 BKN017 07/03 Q1027
  • 021320Z AUTO 27015KT 9999 BKN017 BKN023 07/03 Q1027 NOSIG
  • 021250Z AUTO 27018KT 9999 BKN017 07/03 Q1027 TEMPO 28015G25KT
  • 021220Z AUTO 27015KT 9999 BKN017 OVC038 07/04 Q1027 TEMPO 28015G25KT
  • 021150Z AUTO 28016KT 9999 BKN015 BKN023 OVC032 06/04 Q1027 TEMPO 28015G25KT

TAF TAF EDDR
Valid from the 02 at 12:00 until the 03 at 12:00 UTC


021100Z 0212/0312 26015G25KT 9999 SCT010 BKN015
TEMPO 0212/0312 BKN010
PROB40
TEMPO 0305/0310 3500 -DZRA BKN007



MET'MAP, your aeronautical weather chart ! - Copyright ORBIFLY December 2007 - Disclaimer

ORBIFLY MET'MAP TEAM :

Programming & Development : Alexandra Zaïnal
Original concept : Baudouin d'Aumeries
Technical & hardware support : Manuel Goepfert
Assistance : Marc-Olivier Méhu




SOURCES & CREDITS :

   NOAA